Time;durP1;ratioP1;P1;durP2;ratioP2;P2;SDS_P1;SDS_P2;PMS_P1;PMS_P2;Temp;Humidity;BMP_temperature;BMP_pressure;BME280_temperature;BME280_humidity;BME280_pressure;Samples;Min_cycle;Max_cycle;Signal;HPM_P1;HPM_P2
2023/03/22 00:01:08;;;;;;;8.23;3.60;;;;;;;7.82;100.00;100716.94;4926855;29;20117;-72
2023/03/22 00:03:33;;;;;;;8.57;3.20;;;;;;;7.80;100.00;100713.50;4923926;28;20035;-73
2023/03/22 00:05:59;;;;;;;7.90;3.47;;;;;;;7.79;100.00;100717.06;4923833;29;21189;-72
2023/03/22 00:08:24;;;;;;;9.07;3.22;;;;;;;7.77;100.00;100710.94;4926695;29;20039;-72
2023/03/22 00:10:50;;;;;;;6.70;3.20;;;;;;;7.73;100.00;100708.44;4925511;28;20818;-72
2023/03/22 00:13:18;;;;;;;10.65;3.28;;;;;;;7.72;100.00;100701.47;4926426;28;21554;-72
2023/03/22 00:15:44;;;;;;;5.40;2.85;;;;;;;7.72;100.00;100697.94;4926352;29;20054;-72
2023/03/22 00:18:11;;;;;;;8.80;3.45;;;;;;;7.72;100.00;100705.84;4925528;29;21579;-72
2023/03/22 00:20:38;;;;;;;4.22;2.83;;;;;;;7.70;100.00;100705.94;4925187;29;20134;-72
2023/03/22 00:23:05;;;;;;;5.43;2.45;;;;;;;7.70;100.00;100700.66;4925135;28;20039;-73
2023/03/22 00:25:30;;;;;;;5.95;2.78;;;;;;;7.69;100.00;100696.28;4920863;28;20047;-72
2023/03/22 00:27:56;;;;;;;5.93;2.63;;;;;;;7.68;100.00;100694.56;4905015;29;20046;-72
2023/03/22 00:30:21;;;;;;;5.22;2.70;;;;;;;7.68;100.00;100691.09;4920375;28;20058;-72
2023/03/22 00:32:47;;;;;;;5.78;2.95;;;;;;;7.67;100.00;100692.84;4919789;28;20066;-73
2023/03/22 00:35:12;;;;;;;5.60;2.33;;;;;;;7.67;100.00;100686.72;4920140;28;20059;-72
2023/03/22 00:37:38;;;;;;;9.00;2.40;;;;;;;7.66;100.00;100687.63;4919764;28;20130;-72
2023/03/22 00:40:09;;;;;;;4.95;2.50;;;;;;;7.65;100.00;100686.78;4920294;28;20573;-72
2023/03/22 00:42:36;;;;;;;4.10;2.33;;;;;;;7.66;100.00;100691.13;4920419;28;20054;-72
2023/03/22 00:45:03;;;;;;;6.10;2.13;;;;;;;7.65;100.00;100681.50;4903345;28;21426;-72
2023/03/22 00:47:29;;;;;;;3.35;1.83;;;;;;;7.66;100.00;100685.84;4922628;28;20047;-73
2023/03/22 00:49:54;;;;;;;8.02;2.10;;;;;;;7.67;100.00;100677.03;4904802;28;20474;-72
2023/03/22 00:52:20;;;;;;;3.13;1.80;;;;;;;7.66;100.00;100675.31;4918801;28;20051;-72
2023/03/22 00:54:46;;;;;;;4.90;1.75;;;;;;;7.66;100.00;100667.41;4922961;28;20503;-72
2023/03/22 00:57:13;;;;;;;6.55;1.80;;;;;;;7.65;100.00;100662.19;4922991;28;20749;-71
2023/03/22 00:59:39;;;;;;;5.93;2.00;;;;;;;7.65;100.00;100667.47;4924287;29;20051;-72
2023/03/22 01:02:05;;;;;;;6.07;1.60;;;;;;;7.62;100.00;100663.16;4924253;28;20043;-72
2023/03/22 01:04:34;;;;;;;2.90;1.88;;;;;;;7.62;100.00;100657.88;4922992;28;20047;-73
2023/03/22 01:07:02;;;;;;;4.43;1.60;;;;;;;7.60;100.00;100654.47;4923398;28;20043;-72
2023/03/22 01:09:30;;;;;;;3.83;1.73;;;;;;;7.59;100.00;100658.00;4924131;29;20407;-73
2023/03/22 01:11:56;;;;;;;2.58;1.48;;;;;;;7.58;100.00;100656.28;4906073;28;20044;-73
2023/03/22 01:14:23;;;;;;;4.00;1.50;;;;;;;7.55;100.00;100652.00;4919262;28;20063;-72
2023/03/22 01:16:49;;;;;;;4.28;1.50;;;;;;;7.54;100.00;100654.66;4923400;29;20067;-73
2023/03/22 01:19:15;;;;;;;5.63;1.55;;;;;;;7.52;100.00;100645.97;4923861;28;20146;-72
2023/03/22 01:21:40;;;;;;;4.20;1.40;;;;;;;7.48;100.00;100646.06;4923679;28;20047;-72
2023/03/22 01:24:06;;;;;;;2.65;1.52;;;;;;;7.46;100.00;100642.63;4924141;28;20765;-72
2023/03/22 01:26:32;;;;;;;3.38;1.23;;;;;;;7.44;100.00;100639.22;4916075;28;20043;-72
2023/03/22 01:28:58;;;;;;;4.68;1.45;;;;;;;7.41;100.00;100636.66;4919410;28;20078;-72
2023/03/22 01:31:23;;;;;;;5.32;1.63;;;;;;;7.38;100.00;100628.88;4905428;28;20074;-72
2023/03/22 01:33:49;;;;;;;3.15;1.35;;;;;;;7.34;100.00;100625.50;4917511;28;20671;-73
2023/03/22 01:36:15;;;;;;;5.95;1.70;;;;;;;7.32;100.00;100632.56;4917580;28;20063;-73
2023/03/22 01:38:40;;;;;;;4.43;1.48;;;;;;;7.29;100.00;100618.66;4899955;28;20047;-73
2023/03/22 01:41:06;;;;;;;3.35;1.40;;;;;;;7.28;100.00;100616.94;4899021;28;20198;-73
2023/03/22 01:43:31;;;;;;;4.00;1.75;;;;;;;7.28;100.00;100617.81;4918311;28;20146;-73
2023/03/22 01:45:57;;;;;;;2.92;1.33;;;;;;;7.28;100.00;100609.03;4919547;28;20053;-73
2023/03/22 01:48:24;;;;;;;5.47;1.92;;;;;;;7.29;100.00;100608.13;4919355;28;20066;-73
2023/03/22 01:51:06;;;;;;;5.47;1.83;;;;;;;7.32;100.00;100602.78;4920359;28;20043;-72
2023/03/22 01:53:35;;;;;;;3.67;1.52;;;;;;;7.34;100.00;100593.03;4920096;28;20606;-72
2023/03/22 01:56:01;;;;;;;4.75;1.60;;;;;;;7.37;100.00;100603.47;4900380;28;20137;-73
2023/03/22 01:58:27;;;;;;;4.65;1.30;;;;;;;7.40;100.00;100595.44;4915089;28;20139;-72
2023/03/22 02:00:53;;;;;;;5.35;1.85;;;;;;;7.43;100.00;100595.34;4923547;28;20062;-72
2023/03/22 02:03:24;;;;;;;3.25;1.42;;;;;;;7.46;100.00;100597.84;4919633;28;20506;-72
2023/03/22 02:05:50;;;;;;;6.45;1.85;;;;;;;7.47;100.00;100591.66;4901528;28;21162;-72
2023/03/22 02:08:16;;;;;;;4.03;1.33;;;;;;;7.50;100.00;100595.97;4917319;28;20055;-73
2023/03/22 02:10:41;;;;;;;4.97;1.30;;;;;;;7.50;100.00;100584.56;4898648;28;20055;-72
2023/03/22 02:13:13;;;;;;;8.27;1.40;;;;;;;7.51;100.00;100579.25;4919393;28;20039;-73
2023/03/22 02:16:12;;;;;;;7.28;1.50;;;;;;;7.53;100.00;100577.44;4921388;28;20047;-73
2023/03/22 02:18:44;;;;;;;4.90;1.65;;;;;;;7.54;100.00;100573.88;4922934;28;20327;-73
2023/03/22 02:22:01;;;;;;;5.60;1.35;;;;;;;7.55;100.00;100566.81;4922784;28;20055;-73
2023/03/22 02:24:57;;;;;;;2.85;1.25;;;;;;;7.56;100.00;100569.41;4872742;29;20044;-73
2023/03/22 02:28:07;;;;;;;5.53;1.30;;;;;;;7.57;100.00;100570.28;4887266;29;20108;-72
2023/03/22 02:31:04;;;;;;;4.43;1.33;;;;;;;7.58;100.00;100566.72;4894101;28;20346;-72
2023/03/22 02:33:45;;;;;;;7.45;1.25;;;;;;;7.58;100.00;100566.72;4925774;28;20051;-74
2023/03/22 02:36:13;;;;;;;5.43;1.40;;;;;;;7.57;100.00;100571.13;4927229;29;20051;-74
2023/03/22 02:39:11;;;;;;;2.85;1.13;;;;;;;7.61;100.00;100561.31;4926577;29;20775;-73
2023/03/22 02:41:50;;;;;;;13.35;1.92;;;;;;;7.61;100.00;100563.94;4925688;29;20047;-74
2023/03/22 02:44:25;;;;;;;5.07;1.33;;;;;;;7.64;100.00;100566.50;4926192;28;20499;-74
2023/03/22 02:47:06;;;;;;;2.53;1.48;;;;;;;7.67;100.00;100558.47;4925059;29;20054;-73
2023/03/22 02:49:36;;;;;;;6.13;1.50;;;;;;;7.70;100.00;100545.19;4926683;28;20056;-74
2023/03/22 02:52:16;;;;;;;2.97;1.30;;;;;;;7.72;100.00;100545.97;4925537;28;20059;-73
2023/03/22 02:54:50;;;;;;;3.42;1.30;;;;;;;7.75;100.00;100550.28;4916388;28;20428;-73
2023/03/22 02:57:29;;;;;;;1.58;1.20;;;;;;;7.77;100.00;100537.88;4904825;28;20328;-73
2023/03/22 02:59:55;;;;;;;3.17;1.17;;;;;;;7.82;100.00;100550.88;4921775;28;20716;-73
2023/03/22 03:02:21;;;;;;;2.90;1.27;;;;;;;7.83;100.00;100535.00;4925721;28;20597;-72
2023/03/22 03:04:48;;;;;;;7.80;1.70;;;;;;;7.87;100.00;100538.38;4904831;28;20098;-72
2023/03/22 03:07:18;;;;;;;6.15;1.27;;;;;;;7.91;100.00;100536.50;4920207;28;20051;-72
2023/03/22 03:09:44;;;;;;;4.10;1.38;;;;;;;7.94;100.00;100533.72;4905829;29;20039;-72
2023/03/22 03:12:29;;;;;;;3.58;1.60;;;;;;;7.96;100.00;100530.09;4931803;23;21771;-73
2023/03/22 03:14:55;;;;;;;4.35;1.38;;;;;;;7.99;100.00;100523.84;4856610;29;20117;-73
2023/03/22 03:17:41;;;;;;;1.70;1.10;;;;;;;8.01;100.00;100520.25;4858413;29;20033;-74
2023/03/22 03:20:53;;;;;;;3.38;1.20;;;;;;;8.06;100.00;100517.41;4856893;29;20090;-74
2023/03/22 03:23:27;;;;;;;3.25;1.02;;;;;;;8.08;100.00;100512.09;4835439;29;20099;-74
2023/03/22 03:26:00;;;;;;;4.53;1.27;;;;;;;8.12;100.00;100509.25;4857166;29;20080;-74
2023/03/22 03:28:48;;;;;;;3.90;1.30;;;;;;;8.14;100.00;100506.56;4854397;29;20588;-74
2023/03/22 03:31:36;;;;;;;4.80;1.02;;;;;;;8.18;100.00;100510.81;4842606;29;20064;-74
2023/03/22 03:34:12;;;;;;;3.38;1.52;;;;;;;8.19;100.00;100499.34;4854083;29;20045;-74
2023/03/22 03:36:41;;;;;;;2.30;1.13;;;;;;;8.20;100.00;100494.91;4854802;29;20044;-74
2023/03/22 03:39:10;;;;;;;5.18;1.27;;;;;;;8.20;100.00;100493.13;4855792;29;20253;-74
2023/03/22 03:41:35;;;;;;;5.05;1.50;;;;;;;8.20;100.00;100495.78;4853451;29;20392;-74
2023/03/22 03:44:01;;;;;;;3.88;1.27;;;;;;;8.20;100.00;100497.53;4852234;29;20057;-74
2023/03/22 03:46:28;;;;;;;3.70;1.30;;;;;;;8.19;100.00;100498.47;4854495;29;20287;-74
2023/03/22 03:48:54;;;;;;;5.55;1.55;;;;;;;8.18;100.00;100497.63;4857887;29;20394;-74
2023/03/22 03:51:25;;;;;;;7.80;1.55;;;;;;;8.17;100.00;100495.03;4838778;29;20044;-74
2023/03/22 03:53:50;;;;;;;2.05;1.13;;;;;;;8.16;100.00;100499.44;4855939;29;20048;-74
2023/03/22 03:56:16;;;;;;;4.35;1.40;;;;;;;8.15;100.00;100489.81;4854891;29;20125;-74
2023/03/22 03:58:49;;;;;;;3.78;1.23;;;;;;;8.14;100.00;100482.84;4853908;29;20041;-74
2023/03/22 04:01:18;;;;;;;;;;;;;;;8.12;100.00;100476.78;4866479;29;20053;-74
2023/03/22 04:03:45;;;;;;;8.93;1.45;;;;;;;8.10;100.00;100489.16;4854971;29;19959;-74
2023/03/22 04:06:11;;;;;;;5.32;1.20;;;;;;;8.08;100.00;100485.72;4838789;29;20420;-74
2023/03/22 04:08:36;;;;;;;6.75;1.95;;;;;;;8.07;100.00;100484.00;4852015;29;20039;-74
2023/03/22 04:11:02;;;;;;;5.05;1.60;;;;;;;8.06;100.00;100491.06;4855024;29;20492;-74
2023/03/22 04:13:28;;;;;;;3.08;1.40;;;;;;;8.04;100.00;100481.47;4878480;29;20155;-74
2023/03/22 04:15:56;;;;;;;3.03;1.27;;;;;;;8.04;100.00;100489.41;4877583;29;20311;-74
2023/03/22 04:18:21;;;;;;;2.72;1.40;;;;;;;8.02;100.00;100482.41;4862315;29;20412;-75
2023/03/22 04:20:48;;;;;;;2.65;1.30;;;;;;;8.01;100.00;100480.69;4878880;29;20160;-73
2023/03/22 04:23:14;;;;;;;4.07;1.52;;;;;;;8.00;100.00;100478.13;4878124;29;20174;-73
2023/03/22 04:25:40;;;;;;;3.13;1.73;;;;;;;8.00;100.00;100486.03;4878135;29;20052;-73
2023/03/22 04:28:06;;;;;;;7.28;2.10;;;;;;;7.98;100.00;100486.09;4877055;29;20067;-73
2023/03/22 04:30:35;;;;;;;5.35;1.95;;;;;;;7.95;100.00;100478.31;4876760;29;20051;-73
2023/03/22 04:33:06;;;;;;;6.97;2.42;;;;;;;7.94;100.00;100468.69;4875411;29;20052;-74
2023/03/22 04:35:33;;;;;;;7.22;2.63;;;;;;;7.94;100.00;100468.69;4861247;29;20040;-72
2023/03/22 04:38:00;;;;;;;5.25;2.40;;;;;;;7.94;100.00;100462.53;4875439;29;20440;-71
2023/03/22 04:40:35;;;;;;;6.93;2.30;;;;;;;7.93;100.00;100459.06;4874546;29;20115;-74
2023/03/22 04:43:02;;;;;;;8.80;2.65;;;;;;;7.94;100.00;100460.78;4856547;29;20917;-74
2023/03/22 04:45:31;;;;;;;5.30;2.40;;;;;;;7.95;100.00;100453.75;4863978;29;20096;-75
2023/03/22 04:47:57;;;;;;;6.07;2.40;;;;;;;7.95;100.00;100457.22;4867859;29;20044;-74
2023/03/22 04:50:22;;;;;;;5.78;2.58;;;;;;;7.95;100.00;100454.59;4849773;29;20479;-74
2023/03/22 04:52:48;;;;;;;7.28;2.88;;;;;;;7.95;100.00;100454.59;4881729;29;20131;-74
2023/03/22 04:55:14;;;;;;;7.32;2.53;;;;;;;7.96;100.00;100440.47;4862797;29;20091;-74
2023/03/22 04:57:41;;;;;;;6.00;2.70;;;;;;;7.97;100.00;100447.50;4863411;29;20044;-74
2023/03/22 05:00:07;;;;;;;9.68;3.30;;;;;;;7.97;100.00;100436.94;4868180;29;20144;-74
2023/03/22 05:02:33;;;;;;;7.30;3.20;;;;;;;7.97;100.00;100430.81;4879210;29;20496;-73
2023/03/22 05:04:59;;;;;;;6.32;2.90;;;;;;;7.97;100.00;100436.94;4862485;29;22141;-72
2023/03/22 05:07:24;;;;;;;10.50;3.30;;;;;;;7.96;100.00;100427.28;4848811;29;20036;-73
2023/03/22 05:09:50;;;;;;;7.80;3.65;;;;;;;7.96;100.00;100411.47;4882849;29;20048;-74
2023/03/22 05:12:16;;;;;;;8.98;3.70;;;;;;;7.97;100.00;100405.31;4850682;29;20148;-74
2023/03/22 05:14:41;;;;;;;9.43;3.95;;;;;;;8.01;100.00;100411.31;4844285;29;20197;-74
2023/03/22 05:17:07;;;;;;;6.97;3.72;;;;;;;8.01;100.00;100409.50;4861007;29;20049;-74
2023/03/22 05:19:32;;;;;;;8.07;3.75;;;;;;;8.02;100.00;100405.13;4874857;29;20113;-75
2023/03/22 05:22:00;;;;;;;10.45;3.47;;;;;;;8.02;100.00;100402.47;4877818;29;20137;-74
2023/03/22 05:24:28;;;;;;;8.00;3.95;;;;;;;8.04;100.00;100400.63;4875531;29;20105;-74
2023/03/22 05:26:54;;;;;;;9.88;4.25;;;;;;;8.05;100.00;100394.44;4863340;29;20705;-74
2023/03/22 05:29:20;;;;;;;8.95;5.07;;;;;;;8.08;100.00;100398.72;4874129;29;20107;-74
2023/03/22 05:31:45;;;;;;;9.57;4.53;;;;;;;8.12;100.00;100390.59;4862881;29;20037;-74
2023/03/22 05:34:12;;;;;;;10.02;4.88;;;;;;;8.15;100.00;100395.75;4875439;29;20507;-74
2023/03/22 05:36:38;;;;;;;11.07;5.00;;;;;;;8.20;100.00;100389.41;4849870;29;20067;-73
2023/03/22 05:39:04;;;;;;;9.68;5.00;;;;;;;8.22;100.00;100393.72;4875116;29;20041;-74
2023/03/22 05:41:32;;;;;;;12.55;5.00;;;;;;;8.25;100.00;100390.97;4862048;29;20052;-74
2023/03/22 05:43:58;;;;;;;10.65;5.10;;;;;;;8.29;100.00;100389.03;4859800;29;20474;-74
2023/03/22 05:46:24;;;;;;;13.48;5.03;;;;;;;8.34;100.00;100396.75;4845032;29;20773;-74
2023/03/22 05:48:50;;;;;;;12.48;5.22;;;;;;;8.37;100.00;100386.91;4859668;29;20078;-74
2023/03/22 05:51:19;;;;;;;9.73;4.85;;;;;;;8.40;100.00;100389.41;4865009;29;20052;-74
2023/03/22 05:53:45;;;;;;;9.38;4.53;;;;;;;8.43;100.00;100385.78;4866311;29;20051;-74
2023/03/22 05:56:11;;;;;;;9.30;4.80;;;;;;;8.47;100.00;100383.88;4880516;29;20524;-74
2023/03/22 05:58:37;;;;;;;9.18;4.78;;;;;;;8.49;100.00;100377.59;4862513;29;20612;-74
2023/03/22 06:01:09;;;;;;;9.38;4.90;;;;;;;8.52;100.00;100369.59;4881493;29;20896;-74
2023/03/22 06:03:35;;;;;;;13.73;5.40;;;;;;;8.54;100.00;100367.75;4866417;29;20044;-74
2023/03/22 06:06:01;;;;;;;9.95;4.80;;;;;;;8.55;100.00;100372.09;4878929;29;20056;-74
2023/03/22 06:08:26;;;;;;;10.20;4.85;;;;;;;8.56;100.00;100365.88;4881564;29;20044;-74
2023/03/22 06:10:52;;;;;;;14.05;5.38;;;;;;;8.60;100.00;100368.41;4878918;29;20535;-74
2023/03/22 06:13:19;;;;;;;11.10;4.78;;;;;;;8.60;100.00;100361.31;4867537;29;20056;-74
2023/03/22 06:15:45;;;;;;;8.05;5.07;;;;;;;8.61;100.00;100351.63;4880326;29;20298;-73
2023/03/22 06:18:11;;;;;;;10.00;5.00;;;;;;;8.64;100.00;100357.63;4879042;29;20113;-74
2023/03/22 06:20:38;;;;;;;8.32;4.90;;;;;;;8.66;100.00;100352.28;4865691;29;20052;-74
2023/03/22 06:23:04;;;;;;;11.27;4.65;;;;;;;8.65;100.00;100356.72;4877476;29;20724;-74
2023/03/22 06:25:30;;;;;;;10.13;5.50;;;;;;;8.65;100.00;100359.34;4876801;29;20360;-73
2023/03/22 06:27:56;;;;;;;10.43;5.10;;;;;;;8.65;100.00;100348.78;4874848;29;20060;-74
2023/03/22 06:30:21;;;;;;;12.13;5.43;;;;;;;8.66;100.00;100352.28;4873647;29;20079;-74
2023/03/22 06:32:47;;;;;;;12.02;5.35;;;;;;;8.66;100.00;100339.94;4878196;29;20052;-74
2023/03/22 06:35:13;;;;;;;11.18;5.38;;;;;;;8.68;100.00;100350.44;4865121;29;20583;-74
2023/03/22 06:37:38;;;;;;;14.55;5.50;;;;;;;8.72;100.00;100348.50;4876502;29;20096;-73
2023/03/22 06:40:04;;;;;;;9.10;5.60;;;;;;;8.72;100.00;100349.34;4876154;29;20040;-74
2023/03/22 06:42:30;;;;;;;12.63;5.40;;;;;;;8.74;100.00;100359.84;4876913;29;20113;-74
2023/03/22 06:44:56;;;;;;;9.65;5.50;;;;;;;8.74;100.00;100363.34;4875759;29;20116;-74
2023/03/22 06:47:22;;;;;;;17.55;5.50;;;;;;;8.77;100.00;100360.56;4861903;29;20048;-74
2023/03/22 06:49:48;;;;;;;10.30;5.28;;;;;;;8.79;100.00;100365.78;4874008;29;20145;-74
2023/03/22 06:52:14;;;;;;;13.15;5.82;;;;;;;8.81;100.00;100367.44;4865280;29;20053;-74
2023/03/22 06:54:40;;;;;;;10.10;5.20;;;;;;;8.82;100.00;100362.97;4865054;29;20553;-74
2023/03/22 06:57:05;;;;;;;14.52;5.72;;;;;;;8.85;100.00;100360.22;4877677;29;20128;-74
2023/03/22 06:59:31;;;;;;;12.68;4.97;;;;;;;8.88;100.00;100341.59;4864721;29;20205;-74
2023/03/22 07:01:57;;;;;;;11.85;5.45;;;;;;;8.89;100.00;100353.84;4879456;29;20049;-74
2023/03/22 07:04:23;;;;;;;7.50;4.88;;;;;;;8.91;100.00;100337.94;4861648;29;20059;-74
2023/03/22 07:06:49;;;;;;;13.40;4.90;;;;;;;8.93;100.00;100346.69;4864074;29;20043;-74
2023/03/22 07:09:15;;;;;;;9.90;4.57;;;;;;;8.93;100.00;100349.31;4861432;29;20127;-73
2023/03/22 07:11:41;;;;;;;9.13;4.90;;;;;;;8.94;100.00;100353.66;4849725;29;20135;-74
2023/03/22 07:14:06;;;;;;;10.57;4.95;;;;;;;8.93;100.00;100350.16;4880855;29;20052;-74
2023/03/22 07:16:32;;;;;;;10.25;5.35;;;;;;;8.95;100.00;100344.81;4848581;29;20052;-74
2023/03/22 07:18:57;;;;;;;7.95;4.30;;;;;;;8.95;100.00;100340.38;4882182;29;20048;-74
2023/03/22 07:21:23;;;;;;;8.55;4.30;;;;;;;8.97;100.00;100332.38;4876962;29;20398;-74
2023/03/22 07:23:48;;;;;;;8.75;3.75;;;;;;;9.00;100.00;100332.25;4879021;29;20492;-73
2023/03/22 07:26:14;;;;;;;9.55;4.15;;;;;;;9.02;100.00;100322.47;4876943;29;20412;-73
2023/03/22 07:28:40;;;;;;;8.80;3.92;;;;;;;9.06;100.00;100320.53;4871696;29;20055;-74
2023/03/22 07:31:10;;;;;;;8.75;4.10;;;;;;;9.08;100.00;100330.09;4833467;29;20247;-74
2023/03/22 07:33:39;;;;;;;9.05;3.90;;;;;;;9.13;100.00;100339.56;4866831;29;20060;-74
2023/03/22 07:36:06;;;;;;;7.78;3.72;;;;;;;9.15;100.00;100351.78;4862762;29;20044;-74
2023/03/22 07:38:31;;;;;;;9.23;4.10;;;;;;;9.16;100.00;100347.38;4881133;29;20048;-74
2023/03/22 07:40:57;;;;;;;7.72;3.63;;;;;;;9.15;100.00;100345.66;4881666;29;20156;-74
2023/03/22 07:43:23;;;;;;;8.35;3.35;;;;;;;9.13;100.00;100334.28;4877540;29;20044;-74
2023/03/22 07:45:49;;;;;;;5.82;3.20;;;;;;;9.14;100.00;100339.50;4880456;29;20045;-74
2023/03/22 07:48:16;;;;;;;9.23;3.35;;;;;;;9.13;100.00;100326.38;4863247;29;20056;-74
2023/03/22 07:50:41;;;;;;;6.60;3.40;;;;;;;9.14;100.00;100328.94;4879427;29;20190;-74
2023/03/22 07:53:08;;;;;;;7.97;3.10;;;;;;;9.16;100.00;100323.59;4879120;29;20041;-74
2023/03/22 07:55:34;;;;;;;8.10;3.58;;;;;;;9.19;100.00;100326.09;4861248;29;20135;-74
2023/03/22 07:58:00;;;;;;;8.13;3.00;;;;;;;9.23;100.00;100320.59;4877244;29;20127;-74
2023/03/22 08:00:25;;;;;;;10.35;3.35;;;;;;;9.28;100.00;100320.38;4862114;29;20051;-74
2023/03/22 08:02:51;;;;;;;4.18;2.63;;;;;;;9.32;100.00;100327.19;4861303;29;20501;-74
2023/03/22 08:05:17;;;;;;;6.10;3.15;;;;;;;9.34;100.00;100317.44;4845098;29;20052;-74
2023/03/22 08:07:42;;;;;;;4.75;2.90;;;;;;;9.37;100.00;100319.91;4878732;29;20045;-74
2023/03/22 08:10:08;;;;;;;4.57;2.67;;;;;;;9.40;100.00;100310.13;4861694;29;20048;-74
2023/03/22 08:12:34;;;;;;;8.73;3.38;;;;;;;9.43;100.00;100320.56;4879865;29;20112;-74
2023/03/22 08:15:00;;;;;;;7.35;2.60;;;;;;;9.45;100.00;100316.03;4858779;29;20060;-74
2023/03/22 08:17:26;;;;;;;6.03;2.95;;;;;;;9.46;100.00;100307.19;4846167;29;20519;-74
2023/03/22 08:19:55;;;;;;;4.60;2.72;;;;;;;9.49;100.00;100294.66;4882308;29;20063;-74
2023/03/22 08:22:28;;;;;;;5.72;2.67;;;;;;;9.54;100.00;100285.66;4865606;29;20036;-74
2023/03/22 08:24:54;;;;;;;;;;;;;;;9.55;100.00;100314.66;4865821;29;20044;-74
2023/03/22 08:27:20;;;;;;;6.68;2.95;;;;;;;9.57;100.00;100307.50;4883120;29;19931;-74
2023/03/22 08:29:47;;;;;;;12.13;2.60;;;;;;;9.57;100.00;100319.84;4848259;29;20385;-74
2023/03/22 08:32:13;;;;;;;8.98;3.45;;;;;;;9.56;100.00;100318.16;4873181;29;20508;-73
2023/03/22 08:34:40;;;;;;;4.55;2.53;;;;;;;9.54;100.00;100310.31;4879732;29;20056;-73
2023/03/22 08:37:06;;;;;;;7.43;2.88;;;;;;;9.51;100.00;100306.03;4863397;29;20044;-73
2023/03/22 08:39:33;;;;;;;7.53;2.72;;;;;;;9.50;100.00;100324.59;4883020;29;20075;-73
2023/03/22 08:41:59;;;;;;;5.90;2.70;;;;;;;9.46;100.00;100312.47;4865138;29;20048;-73
2023/03/22 08:44:25;;;;;;;6.70;2.65;;;;;;;9.44;100.00;100315.22;4883982;29;20138;-73
2023/03/22 08:46:50;;;;;;;8.15;2.72;;;;;;;9.40;100.00;100310.13;4879403;29;20048;-73
2023/03/22 08:49:16;;;;;;;6.63;2.63;;;;;;;9.38;100.00;100310.22;4840402;29;20067;-73
2023/03/22 08:51:42;;;;;;;5.55;2.50;;;;;;;9.36;100.00;100317.34;4875940;29;20056;-73
2023/03/22 08:54:07;;;;;;;4.00;2.28;;;;;;;9.33;100.00;100305.13;4849131;29;21681;-73
2023/03/22 08:56:36;;;;;;;7.65;2.72;;;;;;;9.31;100.00;100303.53;4862646;29;20052;-73
2023/03/22 08:59:06;;;;;;;8.40;3.15;;;;;;;9.27;100.00;100310.75;4878145;29;20056;-73
2023/03/22 09:01:32;;;;;;;7.68;2.95;;;;;;;9.24;100.00;100308.22;4879051;29;20066;-75
2023/03/22 09:03:58;;;;;;;7.75;2.42;;;;;;;9.19;100.00;100320.81;4861286;29;20047;-74
2023/03/22 09:06:25;;;;;;;5.25;2.53;;;;;;;9.14;100.00;100317.53;4874101;29;20789;-73
2023/03/22 09:08:51;;;;;;;6.47;2.85;;;;;;;9.09;100.00;100309.81;4873614;29;20715;-73
2023/03/22 09:11:18;;;;;;;5.40;2.28;;;;;;;9.03;100.00;100310.97;4875643;29;20096;-73
2023/03/22 09:13:44;;;;;;;8.82;2.90;;;;;;;8.99;100.00;100306.75;4879219;29;20049;-74
2023/03/22 09:16:09;;;;;;;7.28;2.80;;;;;;;8.98;100.00;100314.78;4879650;29;21551;-73
2023/03/22 09:18:36;;;;;;;6.93;2.30;;;;;;;8.95;100.00;100327.16;4877906;29;20049;-72
2023/03/22 09:21:03;;;;;;;4.72;2.50;;;;;;;8.94;100.00;100319.34;4847148;29;20051;-72
2023/03/22 09:23:30;;;;;;;9.20;2.50;;;;;;;8.91;100.00;100328.25;4877602;29;20044;-73
2023/03/22 09:26:00;;;;;;;7.57;2.22;;;;;;;8.91;100.00;100316.84;4875478;29;20186;-73
2023/03/22 09:28:26;;;;;;;6.30;2.50;;;;;;;8.90;100.00;100317.75;4863736;29;20087;-73
2023/03/22 09:30:52;;;;;;;6.57;2.47;;;;;;;8.87;100.00;100318.75;4880577;29;20068;-72
2023/03/22 09:33:18;;;;;;;7.97;2.30;;;;;;;8.85;100.00;100315.34;4869888;29;20045;-73
2023/03/22 09:35:44;;;;;;;5.28;2.53;;;;;;;8.85;100.00;100311.84;4877991;29;20051;-73
2023/03/22 09:38:11;;;;;;;5.15;2.47;;;;;;;8.82;100.00;100316.34;4877384;29;20032;-73
2023/03/22 09:40:51;;;;;;;4.22;2.42;;;;;;;8.79;100.00;100310.34;4876902;29;20552;-73
2023/03/22 09:43:17;;;;;;;5.28;2.60;;;;;;;8.74;100.00;100320.25;4880245;29;20079;-73
2023/03/22 09:45:46;;;;;;;6.72;2.35;;;;;;;8.70;100.00;100319.53;4866534;29;20285;-73
2023/03/22 09:48:18;;;;;;;4.55;2.53;;;;;;;8.66;100.00;100325.91;4862226;29;20044;-73
2023/03/22 09:50:47;;;;;;;6.47;2.53;;;;;;;8.60;100.00;100323.53;4852749;29;20435;-73
2023/03/22 09:53:14;;;;;;;9.18;2.90;;;;;;;8.57;100.00;100319.25;4871415;29;20053;-73
2023/03/22 09:55:46;;;;;;;7.72;2.58;;;;;;;8.54;100.00;100324.66;4876153;29;20044;-73
2023/03/22 09:58:32;;;;;;;4.35;2.15;;;;;;;8.50;100.00;100323.91;4878387;29;20445;-73
2023/03/22 10:01:12;;;;;;;5.20;2.10;;;;;;;8.48;100.00;100325.78;4858587;29;20052;-73
2023/03/22 10:04:04;;;;;;;7.70;2.75;;;;;;;8.43;100.00;100327.75;4861038;29;21314;-73
2023/03/22 10:06:30;;;;;;;7.63;2.20;;;;;;;8.41;100.00;100319.06;4880761;29;20678;-73
2023/03/22 10:09:05;;;;;;;3.92;2.63;;;;;;;8.41;100.00;100319.91;4876158;29;20525;-73
2023/03/22 10:11:44;;;;;;;5.75;2.85;;;;;;;8.38;100.00;100332.38;4862261;29;20073;-73
2023/03/22 10:14:31;;;;;;;3.28;2.40;;;;;;;8.36;100.00;100321.03;4864176;29;20738;-72
2023/03/22 10:17:02;;;;;;;7.88;2.25;;;;;;;8.35;100.00;100316.69;4871467;29;21078;-72
2023/03/22 10:19:34;;;;;;;5.72;2.35;;;;;;;8.32;100.00;100328.22;4854896;29;20071;-73
2023/03/22 10:22:01;;;;;;;6.60;2.75;;;;;;;8.32;100.00;100328.22;4858602;29;20108;-73
2023/03/22 10:24:35;;;;;;;4.75;2.17;;;;;;;8.31;100.00;100326.53;4855108;29;21630;-73
2023/03/22 10:27:16;;;;;;;4.80;2.53;;;;;;;8.31;100.00;100318.59;4877669;29;20048;-73
2023/03/22 10:29:46;;;;;;;8.48;2.80;;;;;;;8.31;100.00;100328.28;4900636;29;20020;-74
2023/03/22 10:32:23;;;;;;;8.85;2.90;;;;;;;8.33;100.00;100326.47;4886054;29;20060;-74
2023/03/22 10:34:50;;;;;;;7.13;2.40;;;;;;;8.33;100.00;100321.19;4873236;29;20211;-74
2023/03/22 10:37:20;;;;;;;7.38;2.90;;;;;;;8.35;100.00;100324.59;4875736;29;20052;-74
2023/03/22 10:39:48;;;;;;;5.80;2.97;;;;;;;8.35;100.00;100324.59;4888343;29;20040;-74
2023/03/22 10:42:19;;;;;;;9.00;2.92;;;;;;;8.37;100.00;100333.28;4862809;29;20175;-74
2023/03/22 10:44:47;;;;;;;6.75;3.20;;;;;;;8.41;100.00;100324.34;4866028;29;20040;-77
2023/03/22 10:47:16;;;;;;;7.20;3.40;;;;;;;8.41;100.00;100319.06;4878826;29;20040;-73
2023/03/22 10:49:53;;;;;;;5.32;2.72;;;;;;;8.46;100.00;100322.34;4878541;29;20086;-72
2023/03/22 10:52:25;;;;;;;5.07;2.85;;;;;;;8.50;100.00;100333.63;4882344;29;20453;-74
2023/03/22 10:54:51;;;;;;;5.20;2.97;;;;;;;8.53;100.00;100330.88;4874539;29;20120;-74
2023/03/22 10:57:17;;;;;;;7.88;3.47;;;;;;;8.56;100.00;100328.94;4861267;29;20053;-74
2023/03/22 10:59:51;;;;;;;5.95;2.92;;;;;;;8.61;100.00;100325.25;4886971;29;20512;-73
2023/03/22 11:02:22;;;;;;;9.75;3.28;;;;;;;8.63;100.00;100310.19;4878485;29;20048;-73
2023/03/22 11:04:51;;;;;;;6.60;3.00;;;;;;;8.65;100.00;100325.03;4834655;29;20045;-73
2023/03/22 11:07:42;;;;;;;6.97;3.08;;;;;;;8.68;100.00;100321.41;4854335;29;20080;-74
2023/03/22 11:10:08;;;;;;;5.13;2.85;;;;;;;8.69;100.00;100315.19;4868751;29;20056;-72
2023/03/22 11:12:35;;;;;;;6.13;3.40;;;;;;;8.71;100.00;100318.63;4879978;29;20052;-73
2023/03/22 11:15:01;;;;;;;5.35;3.38;;;;;;;8.72;100.00;100299.19;4875301;29;20053;-73
2023/03/22 11:17:27;;;;;;;8.27;3.40;;;;;;;8.75;100.00;100307.00;4882136;29;20064;-73
2023/03/22 11:19:55;;;;;;;8.13;2.80;;;;;;;8.78;100.00;100306.84;4875583;29;20049;-73
2023/03/22 11:22:21;;;;;;;5.25;2.75;;;;;;;8.80;100.00;100315.56;4857525;29;20048;-74
2023/03/22 11:24:47;;;;;;;5.57;2.75;;;;;;;8.83;100.00;100315.41;4877931;29;20048;-74
2023/03/22 11:27:30;;;;;;;4.07;2.42;;;;;;;8.87;100.00;100320.56;4882873;29;20044;-74
2023/03/22 11:30:19;;;;;;;6.82;3.28;;;;;;;8.87;100.00;100316.13;4854724;29;20052;-74
2023/03/22 11:32:45;;;;;;;8.55;3.17;;;;;;;8.91;100.00;100320.34;4848770;29;20091;-73